createdAt,value
2019-01-28T00:00:52.191Z,978.71
2019-01-28T00:01:57.665Z,978.70
2019-01-28T00:03:03.152Z,978.68
2019-01-28T00:04:08.639Z,978.68
2019-01-28T00:05:14.173Z,978.65
2019-01-28T00:06:20.698Z,978.67
2019-01-28T00:07:25.163Z,978.71
2019-01-28T00:08:30.696Z,978.69
2019-01-28T00:09:36.191Z,978.70
2019-01-28T00:10:41.690Z,978.68
2019-01-28T00:11:47.183Z,978.69
2019-01-28T00:12:53.717Z,978.66
2019-01-28T00:13:58.156Z,978.67
2019-01-28T00:15:03.714Z,978.66
2019-01-28T00:16:09.249Z,978.66
2019-01-28T00:17:14.742Z,978.65
2019-01-28T00:18:20.267Z,978.70
2019-01-28T00:19:26.780Z,978.66
2019-01-28T00:20:31.235Z,978.68
2019-01-28T00:21:36.755Z,978.69
2019-01-28T00:22:42.279Z,978.67
2019-01-28T00:23:47.764Z,978.59
2019-01-28T00:24:53.271Z,978.67
2019-01-28T00:25:59.802Z,978.64
2019-01-28T00:27:04.253Z,978.63
2019-01-28T00:28:09.783Z,978.72
2019-01-28T00:29:15.310Z,978.62
2019-01-28T00:30:20.780Z,978.63
2019-01-28T00:31:26.326Z,978.67
2019-01-28T00:32:32.825Z,978.63
2019-01-28T00:33:37.327Z,978.66
2019-01-28T00:34:42.817Z,978.63
2019-01-28T00:35:48.383Z,978.61
2019-01-28T00:36:53.825Z,978.65
2019-01-28T00:37:59.350Z,978.62
2019-01-28T00:39:05.787Z,978.55
2019-01-28T00:40:10.328Z,978.60
2019-01-28T00:41:15.843Z,978.56
2019-01-28T00:42:21.364Z,978.56
2019-01-28T00:43:26.900Z,978.53
2019-01-28T00:44:32.381Z,978.51
2019-01-28T00:45:38.921Z,978.48
2019-01-28T00:46:43.417Z,978.46
2019-01-28T00:47:48.924Z,978.57
2019-01-28T00:48:54.347Z,978.53
2019-01-28T00:49:59.927Z,978.51
2019-01-28T00:51:05.369Z,978.46
2019-01-28T00:52:11.892Z,978.50
2019-01-28T00:53:16.429Z,978.47
2019-01-28T00:54:21.906Z,978.48
2019-01-28T00:55:27.421Z,978.50
2019-01-28T00:56:32.917Z,978.47
2019-01-28T00:57:38.403Z,978.42
2019-01-28T00:58:44.955Z,978.46
2019-01-28T00:59:49.444Z,978.47
2019-01-28T01:00:55.739Z,978.45
2019-01-28T01:02:00.452Z,978.61
2019-01-28T01:03:05.985Z,978.44
2019-01-28T01:04:11.481Z,978.49
2019-01-28T01:05:17.965Z,978.45
2019-01-28T01:06:22.490Z,978.41
2019-01-28T01:07:28.003Z,978.47
2019-01-28T01:08:33.487Z,978.44
2019-01-28T01:09:38.943Z,978.42
2019-01-28T01:10:44.504Z,978.43
2019-01-28T01:11:50.992Z,978.38
2019-01-28T01:12:55.521Z,978.46
2019-01-28T01:14:01.039Z,978.40
2019-01-28T01:15:06.538Z,978.43
2019-01-28T01:16:12.049Z,978.35
2019-01-28T01:17:17.586Z,978.35
2019-01-28T01:18:24.062Z,978.40
2019-01-28T01:19:28.507Z,978.37
2019-01-28T01:20:34.052Z,978.32
2019-01-28T01:21:39.568Z,978.34
2019-01-28T01:22:45.088Z,978.37
2019-01-28T01:23:50.544Z,978.36
2019-01-28T01:24:57.061Z,978.33
2019-01-28T01:26:01.571Z,978.32
2019-01-28T01:27:07.124Z,978.36
2019-01-28T01:28:12.607Z,978.39
2019-01-28T01:29:18.095Z,978.34
2019-01-28T01:30:23.556Z,978.33
2019-01-28T01:31:30.060Z,978.35
2019-01-28T01:32:34.601Z,978.37
2019-01-28T01:33:40.133Z,978.37
2019-01-28T01:34:45.602Z,978.26
2019-01-28T01:35:51.106Z,978.33
2019-01-28T01:36:56.631Z,978.30
2019-01-28T01:38:03.135Z,978.25
2019-01-28T01:39:07.592Z,978.23
2019-01-28T01:40:13.184Z,978.27
2019-01-28T01:41:18.634Z,978.20
2019-01-28T01:42:24.109Z,978.22
2019-01-28T01:43:29.684Z,978.23
2019-01-28T01:44:36.143Z,978.31
2019-01-28T01:45:40.670Z,978.25
2019-01-28T01:46:46.174Z,978.19
2019-01-28T01:47:51.687Z,978.25
2019-01-28T01:48:57.227Z,978.15
2019-01-28T01:50:02.689Z,978.14
2019-01-28T01:51:09.244Z,978.19
2019-01-28T01:52:13.722Z,978.21
2019-01-28T01:53:19.205Z,978.13
2019-01-28T01:54:24.716Z,978.17
2019-01-28T01:55:30.202Z,978.20
2019-01-28T01:56:35.726Z,978.06
2019-01-28T01:57:42.265Z,978.08
2019-01-28T01:58:46.776Z,978.12
2019-01-28T01:59:52.261Z,978.07
2019-01-28T02:00:57.770Z,978.06
2019-01-28T02:02:03.265Z,978.11
2019-01-28T02:03:08.781Z,978.04
2019-01-28T02:04:15.254Z,978.05
2019-01-28T02:05:19.759Z,978.05
2019-01-28T02:06:25.247Z,977.98
2019-01-28T02:07:30.799Z,977.96
2019-01-28T02:08:36.262Z,977.92
2019-01-28T02:09:41.753Z,977.98
2019-01-28T02:10:48.220Z,977.94
2019-01-28T02:11:52.713Z,977.89
2019-01-28T02:12:58.322Z,977.87
2019-01-28T02:14:03.827Z,977.93
2019-01-28T02:15:09.318Z,977.91
2019-01-28T02:16:14.851Z,977.82
2019-01-28T02:17:21.393Z,977.87
2019-01-28T02:18:25.804Z,977.95
2019-01-28T02:19:31.352Z,977.89
2019-01-28T02:20:36.869Z,977.87
2019-01-28T02:21:42.322Z,977.75
2019-01-28T02:22:47.837Z,977.84
2019-01-28T02:23:54.386Z,977.87
2019-01-28T02:24:58.803Z,977.69
2019-01-28T02:26:04.370Z,977.79
2019-01-28T02:27:09.836Z,977.74
2019-01-28T02:28:15.390Z,977.86
2019-01-28T02:29:20.914Z,977.88
2019-01-28T02:30:27.420Z,977.79
2019-01-28T02:31:31.901Z,977.80
2019-01-28T02:32:37.420Z,977.71
2019-01-28T02:33:42.891Z,977.77
2019-01-28T02:34:48.386Z,977.74
2019-01-28T02:35:53.923Z,977.71
2019-01-28T02:37:00.448Z,977.66
2019-01-28T02:38:04.939Z,977.69
2019-01-28T02:39:10.405Z,977.69
2019-01-28T02:40:15.906Z,977.71
2019-01-28T02:41:21.434Z,977.62
2019-01-28T02:42:26.942Z,977.64
2019-01-28T02:43:33.458Z,977.68
2019-01-28T02:44:37.988Z,977.70
2019-01-28T02:45:43.433Z,977.62
2019-01-28T02:46:48.999Z,977.70
2019-01-28T02:47:54.456Z,977.58
2019-01-28T02:48:59.954Z,977.61
2019-01-28T02:50:06.477Z,977.58
2019-01-28T02:51:10.966Z,977.59
2019-01-28T02:52:16.455Z,977.66
2019-01-28T02:53:21.997Z,977.64
2019-01-28T02:54:27.500Z,977.67
2019-01-28T02:55:33.021Z,977.63
2019-01-28T02:56:39.517Z,977.61
2019-01-28T02:57:44.025Z,977.66
2019-01-28T02:58:49.518Z,977.60
2019-01-28T02:59:54.999Z,977.63
2019-01-28T03:01:00.550Z,977.46
2019-01-28T03:02:06.023Z,977.58
2019-01-28T03:03:12.531Z,977.54
2019-01-28T03:04:16.982Z,977.52
2019-01-28T03:05:22.542Z,977.41
2019-01-28T03:06:28.080Z,977.56
2019-01-28T03:07:33.554Z,977.50
2019-01-28T03:08:39.066Z,977.50
2019-01-28T03:09:45.548Z,977.50
2019-01-28T03:10:50.047Z,977.46
2019-01-28T03:11:55.554Z,977.41
2019-01-28T03:13:01.099Z,977.42
2019-01-28T03:14:06.592Z,977.40
2019-01-28T03:15:12.104Z,977.43
2019-01-28T03:16:18.644Z,977.43
2019-01-28T03:17:23.084Z,977.41
2019-01-28T03:18:28.619Z,977.44
2019-01-28T03:19:34.086Z,977.45
2019-01-28T03:20:39.615Z,977.37
2019-01-28T03:21:45.128Z,977.48
2019-01-28T03:22:51.601Z,977.41
2019-01-28T03:23:56.116Z,977.44
2019-01-28T03:25:01.618Z,977.39
2019-01-28T03:26:07.124Z,977.38
2019-01-28T03:27:12.637Z,977.46
2019-01-28T03:28:18.142Z,977.36
2019-01-28T03:29:24.686Z,977.40
2019-01-28T03:30:29.166Z,977.35
2019-01-28T03:31:34.661Z,977.37
2019-01-28T03:32:40.061Z,977.35
2019-01-28T03:33:45.673Z,977.34
2019-01-28T03:34:51.144Z,977.37
2019-01-28T03:35:57.685Z,977.39
2019-01-28T03:37:02.184Z,977.38
2019-01-28T03:38:07.675Z,977.35
2019-01-28T03:39:13.190Z,977.42
2019-01-28T03:40:18.681Z,977.41
2019-01-28T03:41:24.163Z,977.39
2019-01-28T03:42:30.717Z,977.37
2019-01-28T03:43:35.229Z,977.39
2019-01-28T03:44:40.738Z,977.40
2019-01-28T03:45:46.230Z,977.31
2019-01-28T03:46:51.738Z,977.32
2019-01-28T03:47:57.218Z,977.29
2019-01-28T03:49:03.735Z,977.33
2019-01-28T03:50:08.231Z,977.32
2019-01-28T03:51:13.738Z,977.33
2019-01-28T03:52:19.216Z,977.32
2019-01-28T03:53:24.729Z,977.31
2019-01-28T03:54:30.241Z,977.29
2019-01-28T03:55:36.746Z,977.33
2019-01-28T03:56:41.264Z,977.32
2019-01-28T03:57:46.770Z,977.35
2019-01-28T03:58:52.294Z,977.31
2019-01-28T03:59:57.790Z,977.31
2019-01-28T04:01:03.314Z,977.33
2019-01-28T04:02:09.811Z,977.31
2019-01-28T04:03:14.257Z,977.36
2019-01-28T04:04:19.751Z,977.41
2019-01-28T04:05:25.300Z,977.32
2019-01-28T04:06:30.822Z,977.36
2019-01-28T04:07:36.210Z,977.36
2019-01-28T04:08:42.767Z,977.37
2019-01-28T04:09:47.318Z,977.32
2019-01-28T04:10:52.829Z,977.28
2019-01-28T04:11:58.313Z,977.37
2019-01-28T04:13:03.808Z,977.35
2019-01-28T04:14:09.353Z,977.33
2019-01-28T04:15:15.878Z,977.33
2019-01-28T04:16:20.350Z,977.38
2019-01-28T04:17:25.856Z,977.34
2019-01-28T04:18:31.435Z,977.38
2019-01-28T04:19:36.856Z,977.31
2019-01-28T04:20:42.358Z,977.29
2019-01-28T04:21:48.880Z,977.27
2019-01-28T04:22:53.308Z,977.28
2019-01-28T04:23:58.883Z,977.27
2019-01-28T04:25:04.368Z,977.24
2019-01-28T04:26:09.893Z,977.20
2019-01-28T04:27:15.407Z,977.22
2019-01-28T04:28:21.915Z,977.22
2019-01-28T04:29:26.410Z,977.21
2019-01-28T04:30:31.932Z,977.22
2019-01-28T04:31:37.421Z,977.21
2019-01-28T04:32:42.929Z,977.21
2019-01-28T04:33:48.421Z,977.16
2019-01-28T04:34:54.922Z,977.16
2019-01-28T04:35:59.438Z,977.16
2019-01-28T04:37:04.935Z,977.17
2019-01-28T04:38:10.418Z,977.20
2019-01-28T04:39:15.896Z,977.20
2019-01-28T04:40:21.443Z,977.23
2019-01-28T04:41:27.943Z,977.17
2019-01-28T04:42:32.462Z,977.19
2019-01-28T04:43:37.973Z,977.14
2019-01-28T04:44:43.444Z,977.17
2019-01-28T04:45:48.987Z,977.12
2019-01-28T04:46:54.508Z,977.17
2019-01-28T04:48:00.988Z,977.22
2019-01-28T04:49:05.487Z,977.19
2019-01-28T04:50:10.955Z,977.18
2019-01-28T04:51:16.493Z,977.16
2019-01-28T04:52:21.980Z,977.16
2019-01-28T04:53:27.500Z,977.19
2019-01-28T04:54:33.980Z,977.13
2019-01-28T04:55:38.863Z,977.19
2019-01-28T04:56:44.014Z,977.08
2019-01-28T04:57:49.515Z,977.17
2019-01-28T04:58:54.988Z,977.18
2019-01-28T05:00:00.436Z,977.12
2019-01-28T05:01:07.036Z,977.14
2019-01-28T05:02:11.557Z,977.12
2019-01-28T05:03:17.027Z,977.11
2019-01-28T05:04:22.522Z,977.13
2019-01-28T05:05:28.086Z,977.12
2019-01-28T05:06:33.549Z,977.15
2019-01-28T05:07:40.067Z,977.14
2019-01-28T05:08:44.547Z,977.10
2019-01-28T05:09:50.067Z,977.16
2019-01-28T05:10:55.534Z,977.12
2019-01-28T05:12:01.092Z,977.09
2019-01-28T05:13:06.612Z,977.10
2019-01-28T05:14:13.128Z,977.10
2019-01-28T05:15:17.630Z,977.14
2019-01-28T05:16:23.190Z,977.20
2019-01-28T05:17:28.599Z,977.17
2019-01-28T05:18:34.119Z,977.16
2019-01-28T05:19:39.572Z,977.14
2019-01-28T05:20:46.108Z,977.10
2019-01-28T05:21:50.600Z,977.08
2019-01-28T05:22:56.109Z,977.09
2019-01-28T05:24:01.626Z,976.99
2019-01-28T05:25:07.106Z,977.06
2019-01-28T05:26:12.669Z,977.00
2019-01-28T05:27:19.177Z,977.03
2019-01-28T05:28:23.671Z,976.99
2019-01-28T05:29:29.160Z,977.03
2019-01-28T05:30:34.672Z,977.07
2019-01-28T05:31:40.203Z,977.10
2019-01-28T05:32:45.662Z,977.06
2019-01-28T05:33:52.207Z,977.01
2019-01-28T05:34:56.679Z,977.08
2019-01-28T05:36:02.199Z,977.06
2019-01-28T05:37:07.665Z,977.14
2019-01-28T05:38:13.180Z,977.06
2019-01-28T05:39:18.685Z,977.10
2019-01-28T05:40:25.189Z,977.05
2019-01-28T05:41:29.734Z,977.05
2019-01-28T05:42:35.173Z,976.99
2019-01-28T05:43:40.725Z,977.01
2019-01-28T05:44:46.226Z,977.07
2019-01-28T05:45:51.730Z,976.98
2019-01-28T05:46:58.247Z,977.06
2019-01-28T05:48:02.765Z,977.03
2019-01-28T05:49:08.231Z,977.01
2019-01-28T05:50:13.742Z,976.95
2019-01-28T05:51:19.241Z,977.03
2019-01-28T05:52:24.738Z,977.02
2019-01-28T05:53:31.246Z,977.03
2019-01-28T05:54:35.764Z,977.04
2019-01-28T05:55:41.282Z,977.05
2019-01-28T05:56:46.796Z,977.05
2019-01-28T05:57:52.283Z,977.07
2019-01-28T05:58:57.780Z,977.10
2019-01-28T06:00:04.277Z,977.09
2019-01-28T06:01:08.818Z,977.11
2019-01-28T06:02:14.309Z,977.09
2019-01-28T06:03:19.817Z,977.11
2019-01-28T06:04:25.283Z,977.10
2019-01-28T06:05:30.828Z,977.09
2019-01-28T06:06:37.292Z,977.13
2019-01-28T06:07:41.831Z,977.14
2019-01-28T06:08:47.307Z,977.15
2019-01-28T06:09:52.832Z,977.11
2019-01-28T06:10:58.353Z,977.10
2019-01-28T06:12:03.846Z,977.13
2019-01-28T06:13:10.336Z,977.18
2019-01-28T06:14:14.868Z,977.19
2019-01-28T06:15:20.345Z,977.21
2019-01-28T06:16:25.872Z,977.14
2019-01-28T06:17:38.579Z,977.14
2019-01-28T06:18:36.845Z,977.17
2019-01-28T06:19:43.393Z,977.20
2019-01-28T06:20:47.809Z,977.14
2019-01-28T06:21:53.345Z,977.13
2019-01-28T06:22:58.886Z,977.17
2019-01-28T06:24:04.382Z,977.15
2019-01-28T06:25:09.892Z,977.14
2019-01-28T06:26:16.431Z,977.20
2019-01-28T06:27:20.916Z,977.19
2019-01-28T06:28:26.436Z,977.16
2019-01-28T06:29:31.913Z,977.22
2019-01-28T06:30:37.440Z,977.22
2019-01-28T06:31:42.922Z,977.21
2019-01-28T06:32:49.432Z,977.22
2019-01-28T06:33:53.923Z,977.25
2019-01-28T06:34:59.463Z,977.29
2019-01-28T06:36:04.937Z,977.23
2019-01-28T06:37:10.441Z,977.24
2019-01-28T06:38:15.932Z,977.25
2019-01-28T06:39:22.406Z,977.24
2019-01-28T06:40:26.962Z,977.25
2019-01-28T06:41:32.473Z,977.23
2019-01-28T06:42:37.991Z,977.24
2019-01-28T06:43:43.495Z,977.27
2019-01-28T06:44:49.008Z,977.27
2019-01-28T06:45:55.540Z,977.28
2019-01-28T06:47:00.050Z,977.30
2019-01-28T06:48:05.464Z,977.30
2019-01-28T06:49:11.005Z,977.26
2019-01-28T06:50:16.512Z,977.27
2019-01-28T06:51:22.006Z,977.29
2019-01-28T06:52:28.480Z,977.28
2019-01-28T06:53:33.022Z,977.32
2019-01-28T06:54:38.556Z,977.32
2019-01-28T06:55:44.020Z,977.31
2019-01-28T06:56:49.541Z,977.35
2019-01-28T06:57:55.066Z,977.38
2019-01-28T06:59:01.570Z,977.43
2019-01-28T07:00:06.090Z,977.41
2019-01-28T07:01:11.534Z,977.39
2019-01-28T07:02:17.063Z,977.46
2019-01-28T07:03:22.572Z,977.46
2019-01-28T07:04:28.091Z,977.48
2019-01-28T07:05:34.572Z,977.51
2019-01-28T07:06:39.080Z,977.42
2019-01-28T07:07:44.570Z,977.43
2019-01-28T07:08:50.049Z,977.45
2019-01-28T07:09:55.590Z,977.48
2019-01-28T07:11:01.072Z,977.50
2019-01-28T07:12:07.635Z,977.49
2019-01-28T07:13:12.152Z,977.48
2019-01-28T07:14:17.616Z,977.46
2019-01-28T07:15:23.133Z,977.41
2019-01-28T07:16:28.618Z,977.49
2019-01-28T07:17:34.077Z,977.48
2019-01-28T07:18:40.718Z,977.49
2019-01-28T07:19:45.154Z,977.49
2019-01-28T07:20:50.658Z,977.55
2019-01-28T07:21:56.127Z,977.57
2019-01-28T07:23:01.639Z,977.53
2019-01-28T07:24:07.160Z,977.54
2019-01-28T07:25:13.659Z,977.52
2019-01-28T07:26:18.172Z,977.58
2019-01-28T07:27:23.653Z,977.58
2019-01-28T07:28:29.125Z,977.52
2019-01-28T07:29:34.639Z,977.58
2019-01-28T07:30:40.255Z,977.62
2019-01-28T07:31:46.731Z,977.62
2019-01-28T07:32:51.184Z,977.61
2019-01-28T07:33:56.692Z,977.64
2019-01-28T07:35:02.231Z,977.66
2019-01-28T07:36:07.731Z,977.69
2019-01-28T07:37:13.212Z,977.67
2019-01-28T07:38:19.701Z,977.77
2019-01-28T07:39:24.210Z,977.72
2019-01-28T07:40:29.754Z,977.68
2019-01-28T07:41:35.249Z,977.70
2019-01-28T07:42:40.783Z,977.72
2019-01-28T07:43:46.196Z,977.74
2019-01-28T07:44:52.781Z,977.78
2019-01-28T07:45:57.289Z,977.82
2019-01-28T07:47:02.802Z,977.73
2019-01-28T07:48:08.250Z,977.78
2019-01-28T07:49:13.779Z,977.73
2019-01-28T07:50:19.256Z,977.78
2019-01-28T07:51:25.747Z,977.80
2019-01-28T07:52:30.257Z,977.81
2019-01-28T07:53:35.780Z,977.91
2019-01-28T07:54:41.310Z,977.91
2019-01-28T07:55:46.808Z,977.88
2019-01-28T07:56:52.309Z,977.87
2019-01-28T07:57:58.830Z,977.95
2019-01-28T07:59:03.302Z,977.96
2019-01-28T08:00:08.825Z,977.99
2019-01-28T08:01:14.311Z,977.95
2019-01-28T08:02:19.817Z,977.97
2019-01-28T08:03:26.648Z,977.98
2019-01-28T08:04:31.856Z,977.95
2019-01-28T08:05:36.334Z,978.05
2019-01-28T08:06:41.798Z,978.06
2019-01-28T08:07:47.344Z,978.08
2019-01-28T08:08:52.758Z,978.14
2019-01-28T08:09:58.371Z,978.14
2019-01-28T08:11:04.873Z,978.14
2019-01-28T08:12:09.373Z,978.12
2019-01-28T08:13:14.896Z,978.10
2019-01-28T08:14:20.408Z,978.11
2019-01-28T08:15:25.877Z,978.15
2019-01-28T08:16:31.373Z,978.13
2019-01-28T08:17:37.917Z,978.16
2019-01-28T08:18:42.393Z,978.21
2019-01-28T08:19:47.891Z,978.21
2019-01-28T08:20:53.412Z,978.20
2019-01-28T08:21:58.896Z,978.22
2019-01-28T08:23:04.418Z,978.24
2019-01-28T08:24:10.959Z,978.24
2019-01-28T08:25:15.463Z,978.33
2019-01-28T08:26:20.868Z,978.28
2019-01-28T08:27:26.469Z,978.24
2019-01-28T08:28:36.790Z,978.26
2019-01-28T08:29:37.449Z,978.33
2019-01-28T08:30:43.976Z,978.31
2019-01-28T08:31:48.460Z,978.31
2019-01-28T08:32:54.180Z,978.29
2019-01-28T08:33:59.458Z,978.38
2019-01-28T08:35:04.974Z,978.33
2019-01-28T08:36:10.475Z,978.39
2019-01-28T08:37:16.963Z,978.38
2019-01-28T08:38:21.489Z,978.46
2019-01-28T08:39:26.971Z,978.43
2019-01-28T08:40:32.520Z,978.43
2019-01-28T08:41:37.976Z,978.39
2019-01-28T08:42:43.464Z,978.45
2019-01-28T08:43:50.054Z,978.45
2019-01-28T08:44:54.575Z,978.50
2019-01-28T08:46:00.038Z,978.48
2019-01-28T08:47:05.527Z,978.51
2019-01-28T08:48:17.866Z,978.54
2019-01-28T08:49:16.563Z,978.52
2019-01-28T08:50:23.071Z,978.52
2019-01-28T08:51:28.251Z,978.54
2019-01-28T08:52:33.069Z,978.56
2019-01-28T08:53:38.533Z,978.57
2019-01-28T08:54:44.078Z,978.58
2019-01-28T08:55:49.542Z,978.60
2019-01-28T08:56:56.055Z,978.58
2019-01-28T08:58:00.575Z,978.63
2019-01-28T08:59:06.108Z,978.63
2019-01-28T09:00:11.592Z,978.67
2019-01-28T09:01:17.114Z,978.63
2019-01-28T09:02:22.624Z,978.68
2019-01-28T09:03:29.129Z,978.66
2019-01-28T09:04:33.641Z,978.70
2019-01-28T09:05:39.122Z,978.68
2019-01-28T09:06:44.612Z,978.72
2019-01-28T09:07:50.155Z,978.79
2019-01-28T09:08:55.640Z,978.78
2019-01-28T09:10:02.190Z,978.77
2019-01-28T09:11:06.674Z,978.83
2019-01-28T09:12:12.182Z,978.83
2019-01-28T09:13:17.677Z,978.89
2019-01-28T09:14:23.182Z,978.91
2019-01-28T09:15:28.713Z,978.93
2019-01-28T09:16:35.212Z,978.90
2019-01-28T09:17:39.679Z,978.96
2019-01-28T09:18:45.230Z,978.91
2019-01-28T09:19:50.712Z,979.00
2019-01-28T09:20:56.222Z,979.03
2019-01-28T09:22:01.709Z,979.11
2019-01-28T09:23:08.223Z,979.09
2019-01-28T09:24:12.711Z,979.11
2019-01-28T09:25:18.231Z,979.14
2019-01-28T09:26:23.748Z,979.15
2019-01-28T09:27:29.255Z,979.17
2019-01-28T09:28:34.765Z,979.21
2019-01-28T09:29:41.276Z,979.25
2019-01-28T09:30:45.754Z,979.25
2019-01-28T09:31:51.169Z,979.26
2019-01-28T09:32:56.772Z,979.37
2019-01-28T09:34:02.262Z,979.33
2019-01-28T09:35:07.783Z,979.38
2019-01-28T09:36:14.241Z,979.44
2019-01-28T09:37:18.751Z,979.48
2019-01-28T09:38:24.308Z,979.45
2019-01-28T09:39:29.808Z,979.49
2019-01-28T09:40:35.333Z,979.52
2019-01-28T09:41:40.813Z,979.51
2019-01-28T09:42:47.379Z,979.57
2019-01-28T09:43:51.823Z,979.55
2019-01-28T09:44:57.360Z,979.62
2019-01-28T09:46:02.851Z,979.60
2019-01-28T09:47:09.268Z,979.68
2019-01-28T09:48:13.756Z,979.70
2019-01-28T09:49:20.395Z,979.73
2019-01-28T09:50:24.834Z,979.71
2019-01-28T09:51:30.354Z,979.67
2019-01-28T09:52:35.851Z,979.75
2019-01-28T09:53:41.330Z,979.76
2019-01-28T09:54:46.902Z,979.82
2019-01-28T09:55:53.407Z,979.80
2019-01-28T09:56:57.905Z,979.87
2019-01-28T09:58:03.405Z,979.89
2019-01-28T09:59:08.961Z,979.99
2019-01-28T10:00:14.420Z,979.97
2019-01-28T10:01:19.950Z,980.04
2019-01-28T10:02:26.463Z,980.01
2019-01-28T10:03:30.974Z,980.03
2019-01-28T10:04:36.398Z,980.05
2019-01-28T10:05:41.945Z,980.08
2019-01-28T10:06:47.480Z,980.09
2019-01-28T10:07:52.967Z,980.11
2019-01-28T10:08:59.489Z,980.16
2019-01-28T10:10:03.994Z,980.23
2019-01-28T10:11:09.522Z,980.22
2019-01-28T10:12:15.006Z,980.20
2019-01-28T10:13:20.514Z,980.23
2019-01-28T10:14:26.035Z,980.26
2019-01-28T10:15:32.548Z,980.35
2019-01-28T10:16:37.041Z,980.33
2019-01-28T10:17:42.508Z,980.34
2019-01-28T10:18:48.059Z,980.37
2019-01-28T10:19:53.542Z,980.40
2019-01-28T10:20:59.039Z,980.38
2019-01-28T10:22:05.566Z,980.42
2019-01-28T10:23:10.115Z,980.40
2019-01-28T10:24:15.641Z,980.49
2019-01-28T10:25:21.123Z,980.49
2019-01-28T10:26:26.588Z,980.57
2019-01-28T10:27:32.121Z,980.55
2019-01-28T10:28:38.651Z,980.55
2019-01-28T10:29:43.113Z,980.62
2019-01-28T10:30:48.646Z,980.63
2019-01-28T10:31:54.149Z,980.60
2019-01-28T10:32:59.671Z,980.61
2019-01-28T10:34:06.317Z,980.64
2019-01-28T10:35:11.644Z,980.69
2019-01-28T10:36:16.132Z,980.69
2019-01-28T10:37:21.633Z,980.71
2019-01-28T10:38:28.163Z,980.79
2019-01-28T10:39:32.715Z,980.75
2019-01-28T10:40:38.198Z,980.84
2019-01-28T10:41:44.703Z,980.83
2019-01-28T10:42:49.202Z,980.79
2019-01-28T10:43:54.716Z,980.79
2019-01-28T10:45:00.288Z,980.90
2019-01-28T10:46:05.720Z,980.85
2019-01-28T10:47:11.231Z,980.96
2019-01-28T10:48:17.750Z,980.95
2019-01-28T10:49:22.221Z,980.97
2019-01-28T10:50:27.700Z,981.00
2019-01-28T10:51:33.142Z,981.00
2019-01-28T10:52:38.742Z,981.09
2019-01-28T10:53:44.272Z,981.05
2019-01-28T10:54:50.876Z,981.04
2019-01-28T10:55:55.277Z,981.05
2019-01-28T10:57:00.761Z,981.04
2019-01-28T10:58:06.317Z,981.04
2019-01-28T10:59:11.822Z,981.08
2019-01-28T11:00:17.322Z,981.11
2019-01-28T11:01:23.820Z,981.13
2019-01-28T11:02:28.314Z,981.14
2019-01-28T11:03:33.783Z,981.19
2019-01-28T11:04:39.363Z,981.20
2019-01-28T11:05:44.823Z,981.23
2019-01-28T11:06:50.332Z,981.22
2019-01-28T11:07:56.863Z,981.24
2019-01-28T11:09:01.356Z,981.26
2019-01-28T11:10:06.877Z,981.29
2019-01-28T11:11:12.374Z,981.30
2019-01-28T11:12:17.994Z,981.28
2019-01-28T11:13:23.468Z,981.33
2019-01-28T11:14:30.001Z,981.32
2019-01-28T11:15:34.410Z,981.35
2019-01-28T11:16:39.954Z,981.37
2019-01-28T11:17:45.413Z,981.37
2019-01-28T11:18:57.384Z,981.40
2019-01-28T11:19:56.383Z,981.42
2019-01-28T11:21:03.010Z,981.44
2019-01-28T11:22:07.423Z,981.47
2019-01-28T11:23:12.992Z,981.48
2019-01-28T11:24:18.509Z,981.53
2019-01-28T11:25:24.073Z,981.48
2019-01-28T11:26:29.564Z,981.52
2019-01-28T11:27:35.972Z,981.58
2019-01-28T11:28:40.608Z,981.57
2019-01-28T11:29:46.020Z,981.61
2019-01-28T11:30:51.494Z,981.57
2019-01-28T11:31:57.117Z,981.61
2019-01-28T11:33:02.465Z,981.59
2019-01-28T11:34:09.078Z,981.64
2019-01-28T11:35:13.646Z,981.64
2019-01-28T11:36:19.001Z,981.64
2019-01-28T11:37:24.493Z,981.65
2019-01-28T11:38:30.215Z,981.69
2019-01-28T11:39:35.594Z,981.75
2019-01-28T11:40:42.113Z,981.69
2019-01-28T11:41:46.690Z,981.78
2019-01-28T11:42:52.213Z,981.77
2019-01-28T11:43:57.657Z,981.81
2019-01-28T11:45:03.084Z,981.79
2019-01-28T11:46:08.665Z,981.79
2019-01-28T11:47:15.267Z,981.86
2019-01-28T11:48:19.612Z,981.86
2019-01-28T11:49:25.046Z,981.89
2019-01-28T11:50:30.610Z,981.96
2019-01-28T11:51:36.107Z,981.95
2019-01-28T11:52:41.662Z,981.97
2019-01-28T11:53:48.162Z,982.00
2019-01-28T11:54:52.669Z,981.99
2019-01-28T11:55:58.163Z,982.00
2019-01-28T11:57:06.296Z,982.02
2019-01-28T11:58:09.166Z,982.06
2019-01-28T11:59:15.133Z,982.05
2019-01-28T12:00:21.205Z,982.11
2019-01-28T12:01:25.675Z,982.08
2019-01-28T12:02:34.473Z,982.07
2019-01-28T12:03:36.733Z,982.11
2019-01-28T12:04:42.229Z,982.11
2019-01-28T12:05:47.710Z,982.15
2019-01-28T12:06:56.674Z,982.16
2019-01-28T12:07:58.732Z,982.18
2019-01-28T12:09:04.251Z,982.24
2019-01-28T12:10:09.731Z,982.24
2019-01-28T12:11:15.221Z,982.30
2019-01-28T12:12:20.761Z,982.32
2019-01-28T12:13:27.214Z,982.38
2019-01-28T12:14:31.782Z,982.33
2019-01-28T12:15:37.250Z,982.31
2019-01-28T12:16:42.750Z,982.36
2019-01-28T12:17:48.287Z,982.41
2019-01-28T12:18:53.754Z,982.39
2019-01-28T12:20:00.217Z,982.41
2019-01-28T12:21:04.807Z,982.46
2019-01-28T12:22:10.289Z,982.47
2019-01-28T12:23:15.804Z,982.55
2019-01-28T12:24:21.326Z,982.42
2019-01-28T12:25:26.826Z,982.50
2019-01-28T12:26:33.375Z,982.61
2019-01-28T12:27:37.793Z,982.51
2019-01-28T12:28:43.386Z,982.56
2019-01-28T12:29:48.844Z,982.63
2019-01-28T12:30:54.362Z,982.64
2019-01-28T12:31:59.830Z,982.69
2019-01-28T12:33:06.349Z,982.70
2019-01-28T12:34:10.805Z,982.72
2019-01-28T12:35:17.430Z,982.80
2019-01-28T12:36:21.799Z,982.81
2019-01-28T12:37:27.388Z,982.85
2019-01-28T12:38:32.896Z,982.90
2019-01-28T12:39:39.434Z,982.92
2019-01-28T12:40:43.894Z,982.88
2019-01-28T12:41:49.424Z,982.89
2019-01-28T12:42:54.878Z,982.95
2019-01-28T12:44:00.414Z,982.97
2019-01-28T12:45:05.869Z,983.00
2019-01-28T12:46:12.423Z,983.04
2019-01-28T12:47:16.910Z,983.00
2019-01-28T12:48:23.068Z,982.95
2019-01-28T12:49:27.873Z,983.08
2019-01-28T12:50:33.398Z,983.07
2019-01-28T12:51:38.978Z,983.04
2019-01-28T12:52:45.487Z,983.11
2019-01-28T12:53:49.929Z,983.16
2019-01-28T12:54:55.426Z,983.20
2019-01-28T12:56:00.983Z,983.18
2019-01-28T12:57:06.512Z,983.28
2019-01-28T12:58:12.032Z,983.22
2019-01-28T12:59:18.568Z,983.28
2019-01-28T13:00:22.946Z,983.37
2019-01-28T13:01:28.505Z,983.36
2019-01-28T13:02:34.041Z,983.34
2019-01-28T13:03:39.451Z,983.37
2019-01-28T13:04:45.002Z,983.49
2019-01-28T13:05:51.539Z,983.45
2019-01-28T13:06:56.058Z,983.48
2019-01-28T13:08:01.591Z,983.50
2019-01-28T13:09:07.077Z,983.48
2019-01-28T13:10:12.549Z,983.52
2019-01-28T13:11:18.134Z,983.60
2019-01-28T13:12:24.624Z,983.59
2019-01-28T13:13:29.062Z,983.65
2019-01-28T13:14:34.611Z,983.59
2019-01-28T13:15:40.112Z,983.64
2019-01-28T13:16:45.608Z,983.68
2019-01-28T13:17:51.165Z,983.72
2019-01-28T13:18:57.606Z,983.70
2019-01-28T13:20:02.115Z,983.80
2019-01-28T13:21:07.694Z,983.80
2019-01-28T13:22:13.149Z,983.85
2019-01-28T13:23:18.670Z,983.85
2019-01-28T13:24:24.171Z,983.93
2019-01-28T13:25:30.695Z,983.88
2019-01-28T13:26:35.158Z,984.04
2019-01-28T13:27:40.659Z,984.00
2019-01-28T13:28:46.157Z,984.01
2019-01-28T13:29:51.704Z,984.09
2019-01-28T13:30:57.224Z,984.18
2019-01-28T13:32:03.665Z,984.20
2019-01-28T13:33:08.217Z,984.22
2019-01-28T13:34:13.789Z,984.23
2019-01-28T13:35:19.155Z,984.25
2019-01-28T13:36:24.692Z,984.27
2019-01-28T13:37:30.139Z,984.29